Terminal Aerodrome Forecast
Issued by NWS

Home | Current Version | Previous Version | Text Only | Print | Product List | Glossary On
Versions: 1 2 3 4 5 6 7 8 9 10 11 12 13 14
000
FTUS44 KLZK 202300
TAFBPK
TAF
KBPK 202325Z 2100/2124 09006KT P6SM SCT050
     FM210600 12004KT P6SM SCT025 BKN050
     FM210900 11005KT P6SM BKN025 BKN050
     FM211200 12008KT P6SM VCSH OVC015
     FM211800 13012KT 4SM BR VCSH OVC012 PROB30 2118/2124 2SM -SHRA
      BR OVC005=

USA.gov is the U.S. government's official web portal to all federal, state and local government web resources and services.